sensor_id;sensor_type;location;lat;lon;timestamp;pressure;altitude;pressure_sealevel;temperature;humidity
5905;BME280;2978;42.012;24.880;2023-04-05T00:01:24;98010.13;;;8.88;64.12
5905;BME280;2978;42.012;24.880;2023-04-05T00:03:54;98019.72;;;8.86;64.08
5905;BME280;2978;42.012;24.880;2023-04-05T00:06:22;98009.31;;;8.83;63.95
5905;BME280;2978;42.012;24.880;2023-04-05T00:09:17;98020.59;;;8.76;63.84
5905;BME280;2978;42.012;24.880;2023-04-05T00:11:43;98024.72;;;8.69;64.30
5905;BME280;2978;42.012;24.880;2023-04-05T00:14:09;98006.91;;;8.71;64.08
5905;BME280;2978;42.012;24.880;2023-04-05T00:16:34;98026.66;;;8.63;64.30
5905;BME280;2978;42.012;24.880;2023-04-05T00:19:00;98031.59;;;8.66;64.75
5905;BME280;2978;42.012;24.880;2023-04-05T00:21:26;98027.75;;;8.67;64.73
5905;BME280;2978;42.012;24.880;2023-04-05T00:23:53;98032.13;;;8.73;65.06
5905;BME280;2978;42.012;24.880;2023-04-05T00:26:19;98027.44;;;8.74;64.50
5905;BME280;2978;42.012;24.880;2023-04-05T00:28:49;98024.47;;;8.65;64.62
5905;BME280;2978;42.012;24.880;2023-04-05T00:31:15;98040.34;;;8.68;65.38
5905;BME280;2978;42.012;24.880;2023-04-05T00:33:40;98020.66;;;8.66;65.28
5905;BME280;2978;42.012;24.880;2023-04-05T00:38:35;98021.16;;;8.73;65.30
5905;BME280;2978;42.012;24.880;2023-04-05T00:41:01;98020.09;;;8.64;64.70
5905;BME280;2978;42.012;24.880;2023-04-05T00:43:26;98016.47;;;8.74;65.39
5905;BME280;2978;42.012;24.880;2023-04-05T00:45:51;98030.47;;;8.72;65.04
5905;BME280;2978;42.012;24.880;2023-04-05T00:48:17;98042.22;;;8.78;65.05
5905;BME280;2978;42.012;24.880;2023-04-05T00:50:43;98038.72;;;8.67;64.75
5905;BME280;2978;42.012;24.880;2023-04-05T00:53:10;98036.81;;;8.68;65.42
5905;BME280;2978;42.012;24.880;2023-04-05T00:55:37;98035.75;;;8.59;64.88
5905;BME280;2978;42.012;24.880;2023-04-05T00:58:03;98032.75;;;8.55;65.67
5905;BME280;2978;42.012;24.880;2023-04-05T01:00:28;98030.28;;;8.54;65.08
5905;BME280;2978;42.012;24.880;2023-04-05T01:02:57;98031.88;;;8.60;65.40
5905;BME280;2978;42.012;24.880;2023-04-05T01:05:43;98028.84;;;8.61;65.53
5905;BME280;2978;42.012;24.880;2023-04-05T01:10:45;98037.34;;;8.65;64.69
5905;BME280;2978;42.012;24.880;2023-04-05T01:13:15;98014.63;;;8.64;64.70
5905;BME280;2978;42.012;24.880;2023-04-05T01:15:40;98036.56;;;8.59;64.85
5905;BME280;2978;42.012;24.880;2023-04-05T01:18:06;98043.69;;;8.55;65.37
5905;BME280;2978;42.012;24.880;2023-04-05T01:20:37;98026.72;;;8.53;65.40
5905;BME280;2978;42.012;24.880;2023-04-05T01:31:36;98050.81;;;8.56;64.37
5905;BME280;2978;42.012;24.880;2023-04-05T01:34:25;98049.19;;;8.50;64.71
5905;BME280;2978;42.012;24.880;2023-04-05T01:37:02;98047.00;;;8.42;64.93
5905;BME280;2978;42.012;24.880;2023-04-05T01:39:30;98051.69;;;8.42;64.91
5905;BME280;2978;42.012;24.880;2023-04-05T01:41:58;98053.03;;;8.44;65.46
5905;BME280;2978;42.012;24.880;2023-04-05T01:44:25;98052.47;;;8.52;65.45
5905;BME280;2978;42.012;24.880;2023-04-05T01:46:50;98061.22;;;8.54;65.40
5905;BME280;2978;42.012;24.880;2023-04-05T01:49:16;98052.47;;;8.52;65.17
5905;BME280;2978;42.012;24.880;2023-04-05T01:51:41;98053.81;;;8.55;65.12
5905;BME280;2978;42.012;24.880;2023-04-05T01:54:07;98054.13;;;8.48;65.24
5905;BME280;2978;42.012;24.880;2023-04-05T01:56:33;98056.31;;;8.51;64.54
5905;BME280;2978;42.012;24.880;2023-04-05T01:58:58;98059.88;;;8.52;64.41
5905;BME280;2978;42.012;24.880;2023-04-05T02:01:24;98056.81;;;8.58;64.66
5905;BME280;2978;42.012;24.880;2023-04-05T02:03:49;98066.66;;;8.69;64.63
5905;BME280;2978;42.012;24.880;2023-04-05T02:06:15;98065.81;;;8.69;64.01
5905;BME280;2978;42.012;24.880;2023-04-05T02:08:40;98057.06;;;8.67;63.78
5905;BME280;2978;42.012;24.880;2023-04-05T02:11:06;98063.13;;;8.59;63.23
5905;BME280;2978;42.012;24.880;2023-04-05T02:13:31;98063.94;;;8.54;64.61
5905;BME280;2978;42.012;24.880;2023-04-05T02:15:57;98059.34;;;8.45;64.49
5905;BME280;2978;42.012;24.880;2023-04-05T02:18:22;98060.72;;;8.37;64.62
5905;BME280;2978;42.012;24.880;2023-04-05T02:21:00;98081.00;;;8.41;64.78
5905;BME280;2978;42.012;24.880;2023-04-05T02:23:26;98076.59;;;8.45;64.84
5905;BME280;2978;42.012;24.880;2023-04-05T02:25:52;98076.88;;;8.34;64.95
5905;BME280;2978;42.012;24.880;2023-04-05T02:28:17;98082.09;;;8.30;64.49
5905;BME280;2978;42.012;24.880;2023-04-05T02:30:43;98086.75;;;8.20;65.20
5905;BME280;2978;42.012;24.880;2023-04-05T02:33:08;98085.66;;;8.16;65.33
5905;BME280;2978;42.012;24.880;2023-04-05T02:35:34;98066.25;;;8.07;65.51
5905;BME280;2978;42.012;24.880;2023-04-05T02:38:02;98091.97;;;8.06;66.31
5905;BME280;2978;42.012;24.880;2023-04-05T02:40:28;98057.50;;;8.00;65.60
5905;BME280;2978;42.012;24.880;2023-04-05T02:42:54;98068.44;;;8.05;65.21
5905;BME280;2978;42.012;24.880;2023-04-05T02:45:19;98079.38;;;8.05;66.04
5905;BME280;2978;42.012;24.880;2023-04-05T02:47:45;98082.69;;;8.07;65.31
5905;BME280;2978;42.012;24.880;2023-04-05T02:50:10;98093.63;;;8.07;65.63
5905;BME280;2978;42.012;24.880;2023-04-05T02:52:36;98086.22;;;8.02;66.34
5905;BME280;2978;42.012;24.880;2023-04-05T02:55:04;98084.03;;;8.10;65.89
5905;BME280;2978;42.012;24.880;2023-04-05T02:57:29;98096.91;;;8.14;65.24
5905;BME280;2978;42.012;24.880;2023-04-05T02:59:55;98087.59;;;8.10;65.13
5905;BME280;2978;42.012;24.880;2023-04-05T03:02:20;98095.25;;;8.13;65.15
5905;BME280;2978;42.012;24.880;2023-04-05T03:04:45;98086.19;;;8.13;65.13
5905;BME280;2978;42.012;24.880;2023-04-05T03:07:11;98094.41;;;8.18;65.51
5905;BME280;2978;42.012;24.880;2023-04-05T03:09:43;98093.06;;;8.15;64.58
5905;BME280;2978;42.012;24.880;2023-04-05T03:12:10;98101.28;;;8.15;65.36
5905;BME280;2978;42.012;24.880;2023-04-05T03:14:36;98094.72;;;8.26;65.37
5905;BME280;2978;42.012;24.880;2023-04-05T03:17:02;98079.91;;;8.32;64.57
5905;BME280;2978;42.012;24.880;2023-04-05T03:19:28;98098.53;;;8.25;64.40
5905;BME280;2978;42.012;24.880;2023-04-05T03:21:54;98109.50;;;8.25;64.22
5905;BME280;2978;42.012;24.880;2023-04-05T03:24:19;98113.88;;;8.26;64.24
5905;BME280;2978;42.012;24.880;2023-04-05T03:26:46;98091.41;;;8.19;64.27
5905;BME280;2978;42.012;24.880;2023-04-05T03:29:12;98103.19;;;8.10;64.21
5905;BME280;2978;42.012;24.880;2023-04-05T03:31:37;98102.09;;;8.11;65.20
5905;BME280;2978;42.012;24.880;2023-04-05T03:34:03;98104.28;;;8.19;64.94
5905;BME280;2978;42.012;24.880;2023-04-05T03:36:29;98094.69;;;8.16;65.13
5905;BME280;2978;42.012;24.880;2023-04-05T03:39:11;98108.66;;;8.10;64.73
5905;BME280;2978;42.012;24.880;2023-04-05T03:41:40;98117.16;;;8.08;64.67
5905;BME280;2978;42.012;24.880;2023-04-05T03:44:06;98097.72;;;8.10;64.83
5905;BME280;2978;42.012;24.880;2023-04-05T03:46:32;98108.38;;;8.16;64.21
5905;BME280;2978;42.012;24.880;2023-04-05T03:48:58;98126.19;;;8.24;63.40
5905;BME280;2978;42.012;24.880;2023-04-05T03:51:24;98110.59;;;8.19;63.45
5905;BME280;2978;42.012;24.880;2023-04-05T03:53:51;98116.56;;;8.21;63.28
5905;BME280;2978;42.012;24.880;2023-04-05T03:56:17;98120.97;;;8.22;62.99
5905;BME280;2978;42.012;24.880;2023-04-05T03:58:43;98119.88;;;8.23;64.04
5905;BME280;2978;42.012;24.880;2023-04-05T04:01:09;98117.72;;;8.25;63.83
5905;BME280;2978;42.012;24.880;2023-04-05T04:03:35;98122.66;;;8.33;64.04
5905;BME280;2978;42.012;24.880;2023-04-05T04:06:02;98127.56;;;8.36;62.98
5905;BME280;2978;42.012;24.880;2023-04-05T04:08:28;98135.19;;;8.44;63.53
5905;BME280;2978;42.012;24.880;2023-04-05T04:10:53;98122.09;;;8.36;62.90
5905;BME280;2978;42.012;24.880;2023-04-05T04:13:19;98124.81;;;8.41;62.62
5905;BME280;2978;42.012;24.880;2023-04-05T04:15:44;98140.41;;;8.46;61.98
5905;BME280;2978;42.012;24.880;2023-04-05T04:18:10;98151.09;;;8.52;62.37
5905;BME280;2978;42.012;24.880;2023-04-05T04:20:37;98155.97;;;8.65;62.39
5905;BME280;2978;42.012;24.880;2023-04-05T04:23:04;98158.19;;;8.63;61.97
5905;BME280;2978;42.012;24.880;2023-04-05T04:25:31;98153.25;;;8.65;62.75
5905;BME280;2978;42.012;24.880;2023-04-05T04:27:56;98153.78;;;8.72;62.33
5905;BME280;2978;42.012;24.880;2023-04-05T04:30:22;98161.97;;;8.77;61.44
5905;BME280;2978;42.012;24.880;2023-04-05T04:32:49;98156.72;;;8.91;61.29
5905;BME280;2978;42.012;24.880;2023-04-05T04:35:21;98154.31;;;8.79;61.69
5905;BME280;2978;42.012;24.880;2023-04-05T04:38:01;98165.25;;;8.84;61.68
5905;BME280;2978;42.012;24.880;2023-04-05T04:40:27;98158.69;;;8.80;61.55
5905;BME280;2978;42.012;24.880;2023-04-05T04:42:54;98170.16;;;8.97;61.37
5905;BME280;2978;42.012;24.880;2023-04-05T04:45:23;98176.69;;;9.01;61.00
5905;BME280;2978;42.012;24.880;2023-04-05T04:47:48;98180.50;;;9.10;61.17
5905;BME280;2978;42.012;24.880;2023-04-05T04:50:14;98184.38;;;9.09;61.28
5905;BME280;2978;42.012;24.880;2023-04-05T04:52:41;98184.94;;;9.06;62.33
5905;BME280;2978;42.012;24.880;2023-04-05T04:55:10;98185.47;;;9.03;61.51
5905;BME280;2978;42.012;24.880;2023-04-05T04:57:41;98195.09;;;8.91;62.46
5905;BME280;2978;42.012;24.880;2023-04-05T05:00:08;98203.88;;;8.88;62.04
5905;BME280;2978;42.012;24.880;2023-04-05T05:02:37;98201.16;;;8.83;62.30
5905;BME280;2978;42.012;24.880;2023-04-05T05:05:04;98200.63;;;8.76;62.52
5905;BME280;2978;42.012;24.880;2023-04-05T05:07:30;98198.72;;;8.71;62.50
5905;BME280;2978;42.012;24.880;2023-04-05T05:09:55;98198.13;;;8.84;62.57
5905;BME280;2978;42.012;24.880;2023-04-05T05:12:21;98205.53;;;8.89;62.02
5905;BME280;2978;42.012;24.880;2023-04-05T05:18:08;98204.09;;;9.12;61.16
5905;BME280;2978;42.012;24.880;2023-04-05T05:20:34;98205.97;;;9.26;60.62
5905;BME280;2978;42.012;24.880;2023-04-05T05:23:00;98204.25;;;9.40;60.39
5905;BME280;2978;42.012;24.880;2023-04-05T05:25:28;98202.69;;;9.83;59.78
5905;BME280;2978;42.012;24.880;2023-04-05T05:27:53;98194.97;;;9.85;57.93
5905;BME280;2978;42.012;24.880;2023-04-05T05:30:19;98212.25;;;9.85;57.90
5905;BME280;2978;42.012;24.880;2023-04-05T05:32:45;98209.69;;;9.99;58.51
5905;BME280;2978;42.012;24.880;2023-04-05T05:35:11;98205.81;;;10.05;58.46
5905;BME280;2978;42.012;24.880;2023-04-05T05:37:36;98208.97;;;9.88;58.21
5905;BME280;2978;42.012;24.880;2023-04-05T05:40:02;98211.97;;;9.92;57.50
5905;BME280;2978;42.012;24.880;2023-04-05T05:42:29;98207.00;;;9.89;56.97
5905;BME280;2978;42.012;24.880;2023-04-05T05:44:58;98206.22;;;9.83;57.65
5905;BME280;2978;42.012;24.880;2023-04-05T05:47:24;98210.34;;;9.86;56.53
5905;BME280;2978;42.012;24.880;2023-04-05T05:50:05;98205.84;;;10.00;58.44
5905;BME280;2978;42.012;24.880;2023-04-05T05:52:31;98208.63;;;9.95;58.89
5905;BME280;2978;42.012;24.880;2023-04-05T05:54:56;98204.19;;;9.99;58.91
5905;BME280;2978;42.012;24.880;2023-04-05T05:57:22;98211.19;;;9.81;59.33
5905;BME280;2978;42.012;24.880;2023-04-05T05:59:47;98211.19;;;9.76;58.84
5905;BME280;2978;42.012;24.880;2023-04-05T06:02:13;98205.34;;;9.93;58.94
5905;BME280;2978;42.012;24.880;2023-04-05T06:04:38;98210.25;;;9.96;59.40
5905;BME280;2978;42.012;24.880;2023-04-05T06:07:04;98215.50;;;9.92;58.88
5905;BME280;2978;42.012;24.880;2023-04-05T06:09:30;98213.13;;;9.81;58.55
5905;BME280;2978;42.012;24.880;2023-04-05T06:11:58;98212.19;;;10.00;58.52
5905;BME280;2978;42.012;24.880;2023-04-05T06:14:23;98220.63;;;10.14;57.63
5905;BME280;2978;42.012;24.880;2023-04-05T06:16:49;98211.84;;;10.12;57.76
5905;BME280;2978;42.012;24.880;2023-04-05T06:19:14;98215.16;;;10.09;58.39
5905;BME280;2978;42.012;24.880;2023-04-05T06:21:40;98221.00;;;10.36;57.50
5905;BME280;2978;42.012;24.880;2023-04-05T06:24:05;98217.09;;;10.42;56.64
5905;BME280;2978;42.012;24.880;2023-04-05T06:26:31;98222.81;;;10.51;56.26
5905;BME280;2978;42.012;24.880;2023-04-05T06:28:56;98225.50;;;10.56;55.97
5905;BME280;2978;42.012;24.880;2023-04-05T06:31:32;98206.81;;;10.58;56.48
5905;BME280;2978;42.012;24.880;2023-04-05T06:33:58;98212.25;;;10.63;57.28
5905;BME280;2978;42.012;24.880;2023-04-05T06:36:24;98211.56;;;10.76;55.17
5905;BME280;2978;42.012;24.880;2023-04-05T06:38:51;98218.78;;;10.72;55.30
5905;BME280;2978;42.012;24.880;2023-04-05T06:41:16;98202.28;;;10.72;54.10
5905;BME280;2978;42.012;24.880;2023-04-05T06:43:42;98220.41;;;10.73;54.78
5905;BME280;2978;42.012;24.880;2023-04-05T06:46:07;98221.22;;;10.73;54.10
5905;BME280;2978;42.012;24.880;2023-04-05T06:48:35;98232.13;;;10.83;53.86
5905;BME280;2978;42.012;24.880;2023-04-05T06:51:02;98234.22;;;10.91;53.19
5905;BME280;2978;42.012;24.880;2023-04-05T06:53:28;98228.66;;;11.01;53.61
5905;BME280;2978;42.012;24.880;2023-04-05T06:55:54;98228.06;;;11.04;53.07
5905;BME280;2978;42.012;24.880;2023-04-05T06:58:21;98241.16;;;11.12;52.95
5905;BME280;2978;42.012;24.880;2023-04-05T07:00:49;98245.88;;;11.12;53.42
5905;BME280;2978;42.012;24.880;2023-04-05T07:03:15;98249.03;;;11.24;52.50
5905;BME280;2978;42.012;24.880;2023-04-05T07:08:18;98249.50;;;11.31;52.20
5905;BME280;2978;42.012;24.880;2023-04-05T07:10:44;98260.28;;;11.51;51.76
5905;BME280;2978;42.012;24.880;2023-04-05T07:13:09;98242.19;;;11.45;51.44
5905;BME280;2978;42.012;24.880;2023-04-05T07:15:35;98254.78;;;11.51;51.63
5905;BME280;2978;42.012;24.880;2023-04-05T07:18:00;98258.66;;;11.50;51.76
5905;BME280;2978;42.012;24.880;2023-04-05T07:20:26;98257.13;;;11.39;51.66
5905;BME280;2978;42.012;24.880;2023-04-05T07:22:51;98258.53;;;11.37;51.97
5905;BME280;2978;42.012;24.880;2023-04-05T07:25:17;98263.50;;;11.34;51.44
5905;BME280;2978;42.012;24.880;2023-04-05T07:27:43;98258.56;;;11.31;52.00
5905;BME280;2978;42.012;24.880;2023-04-05T07:30:08;98263.88;;;11.23;51.62
5905;BME280;2978;42.012;24.880;2023-04-05T07:32:34;98259.63;;;11.12;52.31
5905;BME280;2978;42.012;24.880;2023-04-05T07:34:59;98275.13;;;11.26;52.37
5905;BME280;2978;42.012;24.880;2023-04-05T07:37:25;98256.53;;;11.18;52.42
5905;BME280;2978;42.012;24.880;2023-04-05T07:39:51;98270.94;;;11.10;52.43
5905;BME280;2978;42.012;24.880;2023-04-05T07:42:17;98277.47;;;11.14;53.45
5905;BME280;2978;42.012;24.880;2023-04-05T07:44:45;98262.50;;;11.49;51.47
5905;BME280;2978;42.012;24.880;2023-04-05T07:47:11;98271.66;;;11.45;52.18
5905;BME280;2978;42.012;24.880;2023-04-05T07:49:36;98271.41;;;11.41;51.75
5905;BME280;2978;42.012;24.880;2023-04-05T07:52:02;98276.19;;;11.07;52.50
5905;BME280;2978;42.012;24.880;2023-04-05T07:54:30;98288.22;;;11.11;53.23
5905;BME280;2978;42.012;24.880;2023-04-05T07:56:55;98283.22;;;11.18;53.22
5905;BME280;2978;42.012;24.880;2023-04-05T07:59:22;98280.06;;;11.53;52.59
5905;BME280;2978;42.012;24.880;2023-04-05T08:01:48;98293.28;;;11.80;51.13
5905;BME280;2978;42.012;24.880;2023-04-05T08:04:13;98296.91;;;11.75;51.33
5905;BME280;2978;42.012;24.880;2023-04-05T08:06:39;98293.19;;;11.61;49.90
5905;BME280;2978;42.012;24.880;2023-04-05T08:09:05;98291.25;;;11.62;49.52
5905;BME280;2978;42.012;24.880;2023-04-05T08:11:32;98300.56;;;11.71;50.15
5905;BME280;2978;42.012;24.880;2023-04-05T08:13:58;98292.81;;;11.73;50.54
5905;BME280;2978;42.012;24.880;2023-04-05T08:16:23;98293.44;;;11.65;50.33
5905;BME280;2978;42.012;24.880;2023-04-05T08:18:48;98300.81;;;11.93;50.19
5905;BME280;2978;42.012;24.880;2023-04-05T08:21:14;98293.81;;;11.82;49.67
5905;BME280;2978;42.012;24.880;2023-04-05T08:23:40;98307.09;;;12.17;48.56
5905;BME280;2978;42.012;24.880;2023-04-05T08:26:05;98305.47;;;12.16;48.21
5905;BME280;2978;42.012;24.880;2023-04-05T08:28:32;98306.38;;;12.30;47.97
5905;BME280;2978;42.012;24.880;2023-04-05T08:30:58;98306.38;;;12.30;47.00
5905;BME280;2978;42.012;24.880;2023-04-05T08:33:24;98301.16;;;12.47;47.41
5905;BME280;2978;42.012;24.880;2023-04-05T08:35:55;98305.94;;;12.41;47.08
5905;BME280;2978;42.012;24.880;2023-04-05T08:38:21;98295.38;;;12.30;47.38
5905;BME280;2978;42.012;24.880;2023-04-05T08:40:47;98305.25;;;12.31;47.76
5905;BME280;2978;42.012;24.880;2023-04-05T08:46:16;98303.59;;;11.69;49.13
5905;BME280;2978;42.012;24.880;2023-04-05T08:48:43;98306.47;;;11.83;49.06
5905;BME280;2978;42.012;24.880;2023-04-05T08:51:08;98321.13;;;11.78;49.08
5905;BME280;2978;42.012;24.880;2023-04-05T08:53:34;98303.41;;;11.61;50.08
5905;BME280;2978;42.012;24.880;2023-04-05T08:56:01;98317.00;;;11.76;49.30
5905;BME280;2978;42.012;24.880;2023-04-05T08:58:27;98320.47;;;11.63;48.95
5905;BME280;2978;42.012;24.880;2023-04-05T09:00:55;98318.06;;;11.80;49.53
5905;BME280;2978;42.012;24.880;2023-04-05T09:03:24;98317.66;;;11.68;48.58
5905;BME280;2978;42.012;24.880;2023-04-05T09:05:52;98309.22;;;11.59;48.55
5905;BME280;2978;42.012;24.880;2023-04-05T09:08:18;98316.09;;;11.57;49.57
5905;BME280;2978;42.012;24.880;2023-04-05T09:10:50;98315.50;;;11.60;49.09
5905;BME280;2978;42.012;24.880;2023-04-05T09:13:16;98333.50;;;11.52;47.82
5905;BME280;2978;42.012;24.880;2023-04-05T09:15:42;98342.44;;;11.68;48.75
5905;BME280;2978;42.012;24.880;2023-04-05T09:18:08;98324.81;;;11.69;48.38
5905;BME280;2978;42.012;24.880;2023-04-05T09:20:33;98329.72;;;11.72;48.63
5905;BME280;2978;42.012;24.880;2023-04-05T09:22:59;98334.38;;;11.76;49.13
5905;BME280;2978;42.012;24.880;2023-04-05T09:27:56;98324.59;;;11.60;48.83
5905;BME280;2978;42.012;24.880;2023-04-05T09:30:23;98340.41;;;11.50;49.30
5905;BME280;2978;42.012;24.880;2023-04-05T09:32:52;98334.25;;;11.58;48.92
5905;BME280;2978;42.012;24.880;2023-04-05T09:35:20;98336.94;;;11.39;49.15
5905;BME280;2978;42.012;24.880;2023-04-05T09:37:58;98331.06;;;11.46;48.47
5905;BME280;2978;42.012;24.880;2023-04-05T09:40:54;98337.47;;;11.41;48.73
5905;BME280;2978;42.012;24.880;2023-04-05T09:43:38;98332.22;;;11.68;48.40
5905;BME280;2978;42.012;24.880;2023-04-05T09:46:04;98339.19;;;11.61;48.14
5905;BME280;2978;42.012;24.880;2023-04-05T09:48:48;98349.78;;;11.49;48.03
5905;BME280;2978;42.012;24.880;2023-04-05T09:51:15;98357.28;;;11.43;48.26
5905;BME280;2978;42.012;24.880;2023-04-05T09:56:28;98339.16;;;11.66;47.25
5905;BME280;2978;42.012;24.880;2023-04-05T09:59:20;98348.53;;;11.65;48.24
5905;BME280;2978;42.012;24.880;2023-04-05T10:01:50;98337.19;;;11.71;47.64
5905;BME280;2978;42.012;24.880;2023-04-05T10:04:18;98354.66;;;11.85;47.65
5905;BME280;2978;42.012;24.880;2023-04-05T10:06:43;98351.66;;;11.82;47.99
5905;BME280;2978;42.012;24.880;2023-04-05T10:09:10;98350.06;;;11.76;47.48
5905;BME280;2978;42.012;24.880;2023-04-05T10:11:38;98363.69;;;11.62;47.91
5905;BME280;2978;42.012;24.880;2023-04-05T10:14:06;98357.50;;;11.47;48.07
5905;BME280;2978;42.012;24.880;2023-04-05T10:16:35;98348.75;;;11.68;47.96
5905;BME280;2978;42.012;24.880;2023-04-05T10:19:04;98351.28;;;11.65;47.99
5905;BME280;2978;42.012;24.880;2023-04-05T10:21:34;98342.50;;;11.58;48.67
5905;BME280;2978;42.012;24.880;2023-04-05T10:24:08;98357.41;;;11.28;49.46
5905;BME280;2978;42.012;24.880;2023-04-05T10:27:06;98350.16;;;11.08;49.89
5905;BME280;2978;42.012;24.880;2023-04-05T10:29:44;98353.97;;;11.12;49.88
5905;BME280;2978;42.012;24.880;2023-04-05T10:35:20;98354.84;;;11.08;51.43
5905;BME280;2978;42.012;24.880;2023-04-05T10:40:34;98359.09;;;10.90;51.71
5905;BME280;2978;42.012;24.880;2023-04-05T10:43:02;98360.81;;;10.81;51.81
5905;BME280;2978;42.012;24.880;2023-04-05T10:45:30;98367.97;;;10.82;52.99
5905;BME280;2978;42.012;24.880;2023-04-05T10:48:11;98370.50;;;11.07;52.89
5905;BME280;2978;42.012;24.880;2023-04-05T10:50:40;98366.34;;;11.15;51.54
5905;BME280;2978;42.012;24.880;2023-04-05T10:53:08;98387.34;;;11.34;51.52
5905;BME280;2978;42.012;24.880;2023-04-05T10:55:34;98380.03;;;11.20;50.54
5905;BME280;2978;42.012;24.880;2023-04-05T10:58:00;98378.28;;;11.34;51.84
5905;BME280;2978;42.012;24.880;2023-04-05T11:00:27;98365.81;;;11.42;52.76
5905;BME280;2978;42.012;24.880;2023-04-05T11:02:53;98364.31;;;11.25;52.65
5905;BME280;2978;42.012;24.880;2023-04-05T11:05:40;98375.13;;;11.46;52.82
5905;BME280;2978;42.012;24.880;2023-04-05T11:08:07;98379.00;;;11.45;51.73
5905;BME280;2978;42.012;24.880;2023-04-05T11:10:37;98374.94;;;11.37;53.46
5905;BME280;2978;42.012;24.880;2023-04-05T11:13:05;98370.38;;;11.51;53.48
5905;BME280;2978;42.012;24.880;2023-04-05T11:15:32;98381.25;;;11.38;53.14
5905;BME280;2978;42.012;24.880;2023-04-05T11:20:46;98378.88;;;11.55;52.59
5905;BME280;2978;42.012;24.880;2023-04-05T11:23:16;98380.56;;;11.51;53.17
5905;BME280;2978;42.012;24.880;2023-04-05T11:26:06;98383.91;;;11.48;52.35
5905;BME280;2978;42.012;24.880;2023-04-05T11:28:37;98383.38;;;11.46;53.97
5905;BME280;2978;42.012;24.880;2023-04-05T11:31:16;98379.53;;;11.47;53.73
5905;BME280;2978;42.012;24.880;2023-04-05T11:36:10;98391.13;;;11.44;53.47
5905;BME280;2978;42.012;24.880;2023-04-05T11:38:37;98386.91;;;11.51;52.44
5905;BME280;2978;42.012;24.880;2023-04-05T11:41:14;98381.00;;;11.68;51.57
5905;BME280;2978;42.012;24.880;2023-04-05T11:43:42;98394.66;;;11.78;51.41
5905;BME280;2978;42.012;24.880;2023-04-05T11:46:07;98379.25;;;11.77;51.66
5905;BME280;2978;42.012;24.880;2023-04-05T11:48:33;98395.66;;;11.87;52.18
5905;BME280;2978;42.012;24.880;2023-04-05T11:50:59;98389.31;;;11.58;52.24
5905;BME280;2978;42.012;24.880;2023-04-05T11:53:25;98382.50;;;11.21;52.66
5905;BME280;2978;42.012;24.880;2023-04-05T11:55:51;98390.72;;;11.26;54.70
5905;BME280;2978;42.012;24.880;2023-04-05T11:58:18;98380.69;;;11.41;56.09
5905;BME280;2978;42.012;24.880;2023-04-05T12:00:46;98384.75;;;11.48;55.46
5905;BME280;2978;42.012;24.880;2023-04-05T12:03:20;98379.59;;;11.42;55.04
5905;BME280;2978;42.012;24.880;2023-04-05T12:05:49;98381.41;;;11.51;56.78
5905;BME280;2978;42.012;24.880;2023-04-05T12:08:19;98389.22;;;11.73;56.19
5905;BME280;2978;42.012;24.880;2023-04-05T12:10:55;98383.22;;;11.89;56.35
5905;BME280;2978;42.012;24.880;2023-04-05T12:13:28;98379.13;;;12.10;54.82
5905;BME280;2978;42.012;24.880;2023-04-05T12:15:56;98391.09;;;12.43;53.84
5905;BME280;2978;42.012;24.880;2023-04-05T12:18:24;98381.34;;;12.51;51.67
5905;BME280;2978;42.012;24.880;2023-04-05T12:20:49;98359.38;;;12.64;51.81
5905;BME280;2978;42.012;24.880;2023-04-05T12:23:16;98370.13;;;12.84;51.23
5905;BME280;2978;42.012;24.880;2023-04-05T12:25:45;98373.16;;;13.01;51.11
5905;BME280;2978;42.012;24.880;2023-04-05T12:28:53;98374.81;;;13.02;50.72
5905;BME280;2978;42.012;24.880;2023-04-05T12:31:42;98377.50;;;12.70;51.67
5905;BME280;2978;42.012;24.880;2023-04-05T12:34:08;98374.34;;;12.77;51.41
5905;BME280;2978;42.012;24.880;2023-04-05T12:36:34;98358.56;;;12.82;51.23
5905;BME280;2978;42.012;24.880;2023-04-05T12:39:05;98373.69;;;12.85;50.85
5905;BME280;2978;42.012;24.880;2023-04-05T12:41:32;98385.16;;;12.73;49.82
5905;BME280;2978;42.012;24.880;2023-04-05T12:43:58;98384.50;;;12.81;49.44
5905;BME280;2978;42.012;24.880;2023-04-05T12:46:45;98365.72;;;12.65;50.31
5905;BME280;2978;42.012;24.880;2023-04-05T12:49:12;98385.81;;;12.46;50.53
5905;BME280;2978;42.012;24.880;2023-04-05T12:51:59;98386.09;;;12.45;50.65
5905;BME280;2978;42.012;24.880;2023-04-05T12:54:26;98391.66;;;12.21;51.86
5905;BME280;2978;42.012;24.880;2023-04-05T12:56:52;98371.91;;;12.14;50.77
5905;BME280;2978;42.012;24.880;2023-04-05T12:59:22;98376.31;;;11.63;52.14
5905;BME280;2978;42.012;24.880;2023-04-05T13:02:18;98383.06;;;11.52;52.54
5905;BME280;2978;42.012;24.880;2023-04-05T13:04:44;98375.66;;;11.48;51.31
5905;BME280;2978;42.012;24.880;2023-04-05T13:07:09;98368.88;;;11.35;51.35
5905;BME280;2978;42.012;24.880;2023-04-05T13:09:35;98378.81;;;11.36;51.89
5905;BME280;2978;42.012;24.880;2023-04-05T13:12:01;98388.00;;;11.21;52.96
5905;BME280;2978;42.012;24.880;2023-04-05T13:14:26;98379.75;;;11.21;53.90
5905;BME280;2978;42.012;24.880;2023-04-05T13:16:52;98381.91;;;11.24;52.61
5905;BME280;2978;42.012;24.880;2023-04-05T13:19:17;98394.34;;;11.22;53.28
5905;BME280;2978;42.012;24.880;2023-04-05T13:21:43;98387.09;;;10.97;53.34
5905;BME280;2978;42.012;24.880;2023-04-05T13:24:08;98392.75;;;10.77;53.58
5905;BME280;2978;42.012;24.880;2023-04-05T13:26:33;98403.19;;;10.80;53.96
5905;BME280;2978;42.012;24.880;2023-04-05T13:28:59;98388.53;;;10.90;54.82
5905;BME280;2978;42.012;24.880;2023-04-05T13:31:25;98393.78;;;10.86;55.73
5905;BME280;2978;42.012;24.880;2023-04-05T13:33:51;98404.81;;;10.81;56.48
5905;BME280;2978;42.012;24.880;2023-04-05T13:36:16;98398.25;;;10.77;57.53
5905;BME280;2978;42.012;24.880;2023-04-05T13:38:42;98393.28;;;10.79;57.29
5905;BME280;2978;42.012;24.880;2023-04-05T13:41:07;98387.19;;;10.87;55.38
5905;BME280;2978;42.012;24.880;2023-04-05T13:43:32;98395.06;;;10.99;56.21
5905;BME280;2978;42.012;24.880;2023-04-05T13:45:58;98395.31;;;11.02;54.80
5905;BME280;2978;42.012;24.880;2023-04-05T13:48:23;98395.22;;;11.12;54.63
5905;BME280;2978;42.012;24.880;2023-04-05T13:50:49;98392.78;;;11.11;53.93
5905;BME280;2978;42.012;24.880;2023-04-05T13:53:14;98407.44;;;11.01;52.21
5905;BME280;2978;42.012;24.880;2023-04-05T13:55:40;98379.59;;;11.08;52.87
5905;BME280;2978;42.012;24.880;2023-04-05T13:58:05;98402.78;;;11.30;52.87